Time;durP1;ratioP1;P1;durP2;ratioP2;P2;SDS_P1;SDS_P2;PMS_P1;PMS_P2;Temp;Humidity;BMP_temperature;BMP_pressure;BME280_temperature;BME280_humidity;BME280_pressure;Samples;Min_cycle;Max_cycle;Signal;HPM_P1;HPM_P2
2022/10/12 00:00:06;;;;;;;10.47;5.43;;;8.30;99.90;;;;;;5052247;28;20760;-80
2022/10/12 00:02:33;;;;;;;8.57;5.10;;;8.30;99.90;;;;;;5052135;28;20590;-76
2022/10/12 00:05:00;;;;;;;8.30;5.23;;;8.40;99.90;;;;;;5052728;28;20209;-80
2022/10/12 00:07:27;;;;;;;8.57;5.53;;;8.30;99.90;;;;;;5051837;28;20205;-81
2022/10/12 00:09:55;;;;;;;7.70;5.00;;;8.30;99.90;;;;;;5052179;28;20205;-79
2022/10/12 00:12:22;;;;;;;9.50;5.53;;;8.30;99.90;;;;;;5052464;28;20277;-80
2022/10/12 00:14:49;;;;;;;9.43;5.63;;;8.30;99.90;;;;;;5052163;28;20290;-79
2022/10/12 00:17:16;;;;;;;7.90;5.47;;;8.30;99.90;;;;;;5052324;28;20205;-77
2022/10/12 00:19:43;;;;;;;10.37;5.83;;;8.30;99.90;;;;;;5051974;28;20202;-80
2022/10/12 00:22:10;;;;;;;10.27;5.70;;;8.30;99.90;;;;;;5051407;28;20220;-77
2022/10/12 00:24:37;;;;;;;9.77;5.20;;;8.30;99.90;;;;;;5051923;28;20209;-78
2022/10/12 00:27:05;;;;;;;8.20;5.13;;;8.20;99.90;;;;;;5052073;28;20206;-75
2022/10/12 00:29:32;;;;;;;9.70;5.57;;;8.20;99.90;;;;;;5051190;28;20205;-75
2022/10/12 00:31:59;;;;;;;7.33;5.03;;;8.20;99.90;;;;;;5051930;28;20202;-77
2022/10/12 00:34:26;;;;;;;6.80;5.00;;;8.20;99.90;;;;;;5051833;28;20193;-76
2022/10/12 00:36:55;;;;;;;8.47;5.10;;;8.20;99.90;;;;;;5052035;28;20263;-76
2022/10/12 00:39:22;;;;;;;7.77;5.03;;;8.20;99.90;;;;;;5052702;28;20292;-79
2022/10/12 00:41:49;;;;;;;8.40;5.40;;;8.20;99.90;;;;;;5051559;28;20190;-79
2022/10/12 00:44:38;;;;;;;7.57;4.57;;;8.20;99.90;;;;;;5063845;28;20211;-79
2022/10/12 00:47:13;;;;;;;8.03;4.87;;;8.20;99.90;;;;;;5054991;28;20612;-75
2022/10/12 00:49:40;;;;;;;9.57;5.57;;;8.20;99.90;;;;;;5055754;28;20200;-77
2022/10/12 00:52:11;;;;;;;7.77;5.20;;;8.10;99.90;;;;;;5055586;28;20513;-80
2022/10/12 00:54:42;;;;;;;8.17;4.67;;;8.10;99.90;;;;;;5055486;28;20200;-77
2022/10/12 00:57:11;;;;;;;7.93;4.80;;;8.10;99.90;;;;;;5054592;28;20312;-77
2022/10/12 00:59:44;;;;;;;9.17;4.77;;;8.10;99.90;;;;;;5056061;28;20225;-79
2022/10/12 01:02:12;;;;;;;7.03;4.83;;;8.10;99.90;;;;;;5055421;28;20225;-77
2022/10/12 01:04:40;;;;;;;8.93;5.47;;;8.10;99.90;;;;;;5055208;28;20209;-79
2022/10/12 01:07:07;;;;;;;7.73;5.10;;;8.10;99.90;;;;;;5055362;28;20206;-77
2022/10/12 01:09:34;;;;;;;9.23;5.47;;;8.10;99.90;;;;;;5055480;28;20255;-80
2022/10/12 01:12:03;;;;;;;7.63;4.93;;;8.10;99.90;;;;;;5055688;28;20186;-80
2022/10/12 01:14:30;;;;;;;7.80;5.13;;;8.10;99.90;;;;;;5055537;28;20204;-79
2022/10/12 01:17:03;;;;;;;6.67;4.80;;;8.00;99.90;;;;;;5054925;28;20320;-80
2022/10/12 01:19:57;;;;;;;8.43;4.90;;;8.00;99.90;;;;;;5055961;28;20196;-80
2022/10/12 01:22:24;;;;;;;8.73;5.00;;;8.00;99.90;;;;;;5055867;28;20229;-79
2022/10/12 01:24:53;;;;;;;8.57;5.23;;;8.00;99.90;;;;;;5054747;28;20741;-78
2022/10/12 01:27:45;;;;;;;11.23;5.27;;;7.90;99.90;;;;;;5055525;28;20206;-80
2022/10/12 01:30:17;;;;;;;7.77;4.80;;;7.90;99.90;;;;;;5037993;28;20297;-80
2022/10/12 01:33:07;;;;;;;8.77;5.63;;;7.80;99.90;;;;;;5054561;28;20261;-77
2022/10/12 01:35:42;;;;;;;7.47;4.83;;;7.80;99.90;;;;;;5054851;28;20213;-79
2022/10/12 01:38:21;;;;;;;9.57;5.23;;;7.80;99.90;;;;;;5054568;28;20284;-78
2022/10/12 01:40:55;;;;;;;7.90;4.90;;;7.80;99.90;;;;;;5055063;28;20777;-79
2022/10/12 01:43:23;;;;;;;7.00;4.50;;;7.70;99.90;;;;;;5054945;28;20213;-80
2022/10/12 01:45:51;;;;;;;9.00;4.57;;;7.70;99.90;;;;;;5054184;28;20283;-80
2022/10/12 01:48:19;;;;;;;7.20;4.67;;;7.70;99.90;;;;;;5054454;28;20210;-80
2022/10/12 01:50:52;;;;;;;8.03;5.20;;;7.70;99.90;;;;;;5054244;28;20197;-80
2022/10/12 01:53:28;;;;;;;7.57;4.77;;;7.70;99.90;;;;;;5054541;28;20670;-80
2022/10/12 01:56:03;;;;;;;6.97;4.33;;;7.60;99.90;;;;;;5054874;28;20282;-79
2022/10/12 01:58:51;;;;;;;8.57;5.00;;;7.60;99.90;;;;;;5054775;28;20189;-80
2022/10/12 02:01:29;;;;;;;7.63;4.57;;;7.60;99.90;;;;;;5054496;28;20210;-79
2022/10/12 02:04:01;;;;;;;7.77;4.70;;;7.60;99.90;;;;;;5054078;28;20213;-79
2022/10/12 02:06:35;;;;;;;5.80;4.30;;;7.50;99.90;;;;;;5054366;28;20190;-79
2022/10/12 02:09:12;;;;;;;4.70;4.00;;;7.50;99.90;;;;;;5054274;28;20233;-78
2022/10/12 02:11:41;;;;;;;7.03;4.67;;;7.50;99.90;;;;;;5053922;28;20824;-79
2022/10/12 02:14:13;;;;;;;5.50;3.33;;;7.50;99.90;;;;;;5053920;28;20198;-79
2022/10/12 02:16:46;;;;;;;7.83;4.60;;;7.50;99.90;;;;;;5054584;28;20285;-75
2022/10/12 02:19:19;;;;;;;7.40;4.10;;;7.50;99.90;;;;;;5054484;28;20206;-79
2022/10/12 02:21:48;;;;;;;8.37;4.10;;;7.50;99.90;;;;;;5053489;28;20212;-80
2022/10/12 02:24:17;;;;;;;6.70;4.10;;;7.40;99.90;;;;;;5054395;28;20218;-77
2022/10/12 02:26:47;;;;;;;9.23;4.33;;;7.40;99.90;;;;;;5054026;28;20551;-78
2022/10/12 02:29:20;;;;;;;7.97;4.20;;;7.40;99.90;;;;;;5053181;28;20202;-79
2022/10/12 02:31:55;;;;;;;8.43;4.47;;;7.30;99.90;;;;;;5054104;28;20696;-79
2022/10/12 02:34:29;;;;;;;6.07;4.00;;;7.30;99.90;;;;;;5053200;28;20221;-78
2022/10/12 02:37:05;;;;;;;5.77;3.90;;;7.30;99.90;;;;;;5054130;28;20225;-78
2022/10/12 02:39:37;;;;;;;6.97;4.30;;;7.30;99.90;;;;;;5053988;28;20267;-79
2022/10/12 02:42:07;;;;;;;7.10;4.03;;;7.30;99.90;;;;;;5053585;28;20194;-78
2022/10/12 02:44:38;;;;;;;6.43;3.60;;;7.20;99.90;;;;;;5053328;28;20626;-79
2022/10/12 02:47:07;;;;;;;7.10;4.00;;;7.20;99.90;;;;;;5053877;28;20186;-78
2022/10/12 02:49:36;;;;;;;5.90;3.67;;;7.20;99.90;;;;;;5053285;28;20281;-78
2022/10/12 02:52:04;;;;;;;6.03;4.27;;;7.20;99.90;;;;;;5053466;28;20216;-78
2022/10/12 02:54:31;;;;;;;6.27;4.00;;;7.20;99.90;;;;;;5053521;28;20479;-78
2022/10/12 02:56:58;;;;;;;9.27;4.47;;;7.20;99.90;;;;;;5053083;28;20316;-79
2022/10/12 02:59:25;;;;;;;8.50;4.27;;;7.20;99.90;;;;;;5053425;28;20198;-78
2022/10/12 03:01:52;;;;;;;6.80;3.90;;;7.20;99.90;;;;;;5053132;28;20618;-78
2022/10/12 03:04:20;;;;;;;5.43;3.83;;;7.10;99.90;;;;;;5052218;28;20221;-78
2022/10/12 03:06:47;;;;;;;5.50;3.50;;;7.10;99.90;;;;;;5051813;28;20604;-78
2022/10/12 03:09:14;;;;;;;5.80;3.83;;;7.00;99.90;;;;;;5052006;28;20226;-78
2022/10/12 03:11:42;;;;;;;6.80;3.90;;;7.00;99.90;;;;;;5053642;28;20240;-78
2022/10/12 03:14:10;;;;;;;9.30;4.00;;;7.00;99.90;;;;;;5052937;28;20448;-78
2022/10/12 03:16:37;;;;;;;5.77;3.93;;;7.00;99.90;;;;;;5052239;28;20242;-79
2022/10/12 03:19:04;;;;;;;7.53;4.37;;;7.00;99.90;;;;;;5052881;28;20206;-79
2022/10/12 03:21:32;;;;;;;6.67;4.60;;;7.00;99.90;;;;;;5052722;28;20206;-76
2022/10/12 03:23:59;;;;;;;7.40;3.70;;;6.90;99.90;;;;;;5051675;28;20225;-77
2022/10/12 03:26:26;;;;;;;5.50;4.03;;;6.90;99.90;;;;;;5052793;28;20208;-78
2022/10/12 03:28:53;;;;;;;5.90;3.73;;;6.90;99.90;;;;;;5052468;28;20206;-78
2022/10/12 03:31:20;;;;;;;5.77;3.93;;;6.90;99.90;;;;;;5052047;28;20208;-76
2022/10/12 03:33:47;;;;;;;7.93;3.70;;;6.80;99.90;;;;;;5052632;28;20216;-77
2022/10/12 03:36:13;;;;;;;5.63;3.63;;;6.80;99.90;;;;;;5052257;28;20200;-79
2022/10/12 03:38:42;;;;;;;7.07;3.93;;;6.80;99.90;;;;;;5051924;28;20208;-77
2022/10/12 03:41:08;;;;;;;5.23;3.67;;;6.70;99.90;;;;;;5051821;28;20237;-77
2022/10/12 03:43:35;;;;;;;5.70;4.00;;;6.70;99.90;;;;;;5052033;28;20234;-78
2022/10/12 03:46:02;;;;;;;6.60;3.73;;;6.60;99.90;;;;;;5051491;28;20820;-78
2022/10/12 03:48:29;;;;;;;5.80;4.10;;;6.70;99.90;;;;;;5052449;28;20285;-78
2022/10/12 03:50:56;;;;;;;7.50;4.07;;;6.60;99.90;;;;;;5051729;28;20225;-77
2022/10/12 03:53:22;;;;;;;5.63;3.40;;;6.60;99.90;;;;;;5051613;28;20629;-75
2022/10/12 03:55:51;;;;;;;8.50;3.60;;;6.60;99.90;;;;;;5055669;28;20216;-76
2022/10/12 03:58:18;;;;;;;5.60;3.43;;;6.60;99.90;;;;;;5052051;28;20610;-78
2022/10/12 04:00:44;;;;;;;6.27;3.80;;;6.60;99.90;;;;;;5069599;28;20200;-78
2022/10/12 04:03:11;;;;;;;6.00;3.50;;;6.60;99.90;;;;;;5070994;28;20278;-77
2022/10/12 04:05:38;;;;;;;4.67;3.30;;;6.60;99.90;;;;;;5071136;28;20709;-78
2022/10/12 04:08:05;;;;;;;4.80;3.40;;;6.60;99.90;;;;;;5071982;28;20267;-77
2022/10/12 04:10:32;;;;;;;5.30;3.47;;;6.50;99.90;;;;;;5072437;28;20292;-77
2022/10/12 04:13:01;;;;;;;6.40;3.73;;;6.50;99.90;;;;;;5067545;28;20198;-78
2022/10/12 04:15:27;;;;;;;4.43;3.27;;;6.50;99.90;;;;;;5051830;28;20202;-77
2022/10/12 04:17:54;;;;;;;4.87;3.23;;;6.50;99.90;;;;;;5051929;28;20205;-77
2022/10/12 04:20:21;;;;;;;5.70;3.43;;;6.50;99.90;;;;;;5051320;28;20212;-77
2022/10/12 04:22:48;;;;;;;5.73;3.40;;;6.50;99.90;;;;;;5051870;28;20567;-78
2022/10/12 04:25:15;;;;;;;6.63;3.63;;;6.50;99.90;;;;;;5052025;28;20675;-78
2022/10/12 04:27:42;;;;;;;5.80;4.07;;;6.40;99.90;;;;;;5051511;28;20202;-77
2022/10/12 04:30:12;;;;;;;5.17;3.30;;;6.40;99.90;;;;;;5051864;28;20293;-79
2022/10/12 04:32:39;;;;;;;5.40;3.50;;;6.40;99.90;;;;;;5051850;28;20202;-79
2022/10/12 04:35:06;;;;;;;3.90;3.03;;;6.40;99.90;;;;;;5050816;28;20197;-78
2022/10/12 04:37:33;;;;;;;5.23;3.13;;;6.40;99.90;;;;;;5051753;28;20213;-79
2022/10/12 04:40:00;;;;;;;5.17;3.37;;;6.40;99.90;;;;;;5052146;28;20216;-79
2022/10/12 04:42:27;;;;;;;5.00;3.70;;;6.40;99.90;;;;;;5050753;28;20202;-79
2022/10/12 04:44:54;;;;;;;5.80;4.03;;;6.40;99.90;;;;;;5051840;28;20236;-78
2022/10/12 04:47:22;;;;;;;6.67;3.63;;;6.40;99.90;;;;;;5052060;28;20208;-78
2022/10/12 04:49:49;;;;;;;4.70;4.17;;;6.40;99.90;;;;;;5050455;28;20202;-78
2022/10/12 04:52:16;;;;;;;5.67;3.63;;;6.40;99.90;;;;;;5051740;28;20281;-79
2022/10/12 04:54:43;;;;;;;6.63;4.40;;;6.40;99.90;;;;;;5053800;28;20200;-79
2022/10/12 04:57:09;;;;;;;6.97;3.73;;;6.40;99.90;;;;;;5071720;28;20224;-79
2022/10/12 04:59:36;;;;;;;6.47;4.80;;;6.30;99.90;;;;;;5071564;28;20275;-79
2022/10/12 05:02:03;;;;;;;5.30;4.00;;;6.30;99.90;;;;;;5070851;28;20267;-78
2022/10/12 05:04:31;;;;;;;7.53;4.40;;;6.30;99.90;;;;;;5069718;28;20216;-79
2022/10/12 05:06:58;;;;;;;8.07;4.40;;;6.30;99.90;;;;;;5067335;28;20205;-78
2022/10/12 05:09:25;;;;;;;8.63;4.17;;;6.30;99.90;;;;;;5050352;28;20229;-78
2022/10/12 05:11:52;;;;;;;9.27;4.27;;;6.30;99.90;;;;;;5051581;28;20639;-77
2022/10/12 05:14:19;;;;;;;7.83;4.40;;;6.30;99.90;;;;;;5051475;28;20201;-78
2022/10/12 05:16:45;;;;;;;8.13;4.10;;;6.30;99.90;;;;;;5050837;28;20198;-76
2022/10/12 05:19:12;;;;;;;6.13;4.33;;;6.30;99.90;;;;;;5071092;28;20213;-77
2022/10/12 05:21:41;;;;;;;5.93;4.33;;;6.30;99.90;;;;;;5071392;28;20512;-77
2022/10/12 05:24:09;;;;;;;5.87;4.43;;;6.30;99.90;;;;;;5071103;28;20315;-77
2022/10/12 05:26:35;;;;;;;9.50;5.13;;;6.30;99.90;;;;;;5065590;28;20233;-77
2022/10/12 05:29:02;;;;;;;5.97;4.40;;;6.30;99.90;;;;;;5052057;28;20255;-77
2022/10/12 05:31:29;;;;;;;10.03;5.30;;;6.30;99.90;;;;;;5061917;28;20250;-78
2022/10/12 05:33:56;;;;;;;8.03;4.80;;;6.30;99.90;;;;;;5062809;28;20205;-78
2022/10/12 05:36:23;;;;;;;8.60;4.60;;;6.30;99.90;;;;;;5054420;28;20202;-78
2022/10/12 05:38:51;;;;;;;7.23;4.83;;;6.30;99.90;;;;;;5054102;28;20225;-78
2022/10/12 05:41:18;;;;;;;8.20;4.80;;;6.30;99.90;;;;;;5054076;28;20613;-78
2022/10/12 05:43:44;;;;;;;7.50;4.70;;;6.30;99.90;;;;;;5054473;28;20225;-77
2022/10/12 05:46:11;;;;;;;6.47;4.17;;;6.30;99.90;;;;;;5053559;28;20202;-78
2022/10/12 05:48:38;;;;;;;7.33;4.40;;;6.30;99.90;;;;;;5054337;28;20205;-78
2022/10/12 05:51:06;;;;;;;7.13;4.43;;;6.30;99.90;;;;;;5052981;28;20597;-78
2022/10/12 05:53:32;;;;;;;6.17;4.10;;;6.30;99.90;;;;;;5059299;28;20234;-78
2022/10/12 05:56:01;;;;;;;5.07;4.13;;;6.30;99.90;;;;;;5054170;28;20239;-78
2022/10/12 05:58:30;;;;;;;6.40;5.10;;;6.30;99.90;;;;;;5053181;28;20198;-78
2022/10/12 06:01:04;;;;;;;8.40;5.33;;;6.30;99.90;;;;;;5054042;28;20602;-78
2022/10/12 06:03:31;;;;;;;7.40;4.30;;;6.30;99.90;;;;;;5054106;28;20227;-78
2022/10/12 06:05:58;;;;;;;5.70;4.43;;;6.20;99.90;;;;;;5063669;28;20208;-77
2022/10/12 06:08:25;;;;;;;6.17;4.43;;;6.20;99.90;;;;;;5073875;28;20966;-78
2022/10/12 06:10:52;;;;;;;8.10;4.40;;;6.20;99.90;;;;;;5073808;28;20660;-78
2022/10/12 06:13:21;;;;;;;6.50;4.93;;;6.20;99.90;;;;;;5073127;28;20544;-78
2022/10/12 06:15:48;;;;;;;8.83;5.00;;;6.20;99.90;;;;;;5060324;28;20208;-78
2022/10/12 06:18:16;;;;;;;6.70;4.97;;;6.20;99.90;;;;;;5054167;28;20216;-77
2022/10/12 06:20:46;;;;;;;9.37;5.03;;;6.20;99.90;;;;;;5052800;28;20263;-78
2022/10/12 06:23:13;;;;;;;11.00;5.40;;;6.20;99.90;;;;;;5053406;28;20590;-77
2022/10/12 06:25:40;;;;;;;6.40;4.67;;;6.20;99.90;;;;;;5053736;28;20232;-78
2022/10/12 06:28:07;;;;;;;10.37;6.40;;;6.20;99.90;;;;;;5052566;28;20213;-77
2022/10/12 06:30:36;;;;;;;9.53;5.73;;;6.20;99.90;;;;;;5053470;28;20224;-79
2022/10/12 06:33:03;;;;;;;9.53;6.03;;;6.20;99.90;;;;;;5070660;28;20616;-78
2022/10/12 06:35:30;;;;;;;10.53;5.67;;;6.30;99.90;;;;;;5072138;28;20557;-78
2022/10/12 06:37:57;;;;;;;12.20;5.33;;;6.30;99.90;;;;;;5066485;28;20231;-78
2022/10/12 06:40:25;;;;;;;11.80;5.83;;;6.20;99.90;;;;;;5074330;28;20546;-78
2022/10/12 06:42:52;;;;;;;9.87;6.90;;;6.30;99.90;;;;;;5073330;28;20209;-78
2022/10/12 06:45:19;;;;;;;11.03;6.40;;;6.30;99.90;;;;;;5069442;28;20217;-77
2022/10/12 06:47:47;;;;;;;10.27;5.50;;;6.30;99.90;;;;;;5071837;28;20295;-78
2022/10/12 06:50:15;;;;;;;10.60;5.80;;;6.40;99.90;;;;;;5060118;28;20210;-78
2022/10/12 06:52:42;;;;;;;10.43;6.63;;;6.40;99.90;;;;;;5053061;28;20220;-78
2022/10/12 06:55:10;;;;;;;9.27;6.00;;;6.40;99.90;;;;;;5052099;28;20225;-78
2022/10/12 06:57:37;;;;;;;9.17;6.57;;;6.50;99.90;;;;;;5053235;28;20240;-78
2022/10/12 07:00:05;;;;;;;10.13;6.40;;;6.50;99.90;;;;;;5052946;28;20212;-78
2022/10/12 07:02:32;;;;;;;8.73;6.13;;;6.50;99.90;;;;;;5053149;28;20201;-78
2022/10/12 07:05:01;;;;;;;10.00;6.40;;;6.60;99.90;;;;;;5072544;28;20303;-78
2022/10/12 07:07:30;;;;;;;10.67;6.13;;;6.60;99.90;;;;;;5072778;28;20618;-78
2022/10/12 07:09:57;;;;;;;12.93;6.23;;;6.70;99.90;;;;;;5071350;28;20321;-78
2022/10/12 07:12:24;;;;;;;13.33;7.00;;;6.80;99.90;;;;;;5080973;28;20504;-78
2022/10/12 07:14:51;;;;;;;10.10;6.27;;;6.80;99.90;;;;;;5092461;28;20881;-78
2022/10/12 07:17:18;;;;;;;11.97;7.00;;;6.90;99.90;;;;;;5092478;28;20525;-78
2022/10/12 07:19:45;;;;;;;12.40;8.33;;;6.90;99.90;;;;;;5092159;28;20207;-78
2022/10/12 07:22:13;;;;;;;13.47;7.00;;;7.00;99.90;;;;;;5062621;28;20252;-78
2022/10/12 07:24:40;;;;;;;11.03;6.70;;;7.10;99.90;;;;;;5052073;28;20213;-78
2022/10/12 07:27:09;;;;;;;13.40;7.60;;;7.10;99.90;;;;;;5051878;28;20206;-78
2022/10/12 07:29:38;;;;;;;11.80;7.17;;;7.20;99.90;;;;;;5052139;28;20257;-78
2022/10/12 07:32:06;;;;;;;10.33;6.80;;;7.30;99.90;;;;;;5052197;28;20230;-78
2022/10/12 07:34:33;;;;;;;10.53;6.30;;;7.40;99.90;;;;;;5052652;28;20208;-78
2022/10/12 07:37:00;;;;;;;10.70;7.43;;;7.50;99.90;;;;;;5052082;28;20208;-79
2022/10/12 07:39:28;;;;;;;16.63;8.97;;;7.60;99.90;;;;;;5051458;28;20197;-78
2022/10/12 07:41:57;;;;;;;11.97;7.73;;;7.70;99.90;;;;;;5052467;28;20237;-77
2022/10/12 07:44:26;;;;;;;15.83;8.23;;;7.80;99.90;;;;;;5051408;28;20680;-77
2022/10/12 07:46:53;;;;;;;16.93;10.30;;;7.90;99.90;;;;;;5052001;28;20205;-77
2022/10/12 07:49:21;;;;;;;17.00;9.10;;;8.00;99.90;;;;;;5056834;28;20605;-78
2022/10/12 07:51:48;;;;;;;14.57;8.80;;;8.20;99.90;;;;;;5070532;28;20200;-78
2022/10/12 07:54:15;;;;;;;12.83;8.57;;;8.30;99.90;;;;;;5072379;28;20227;-78
2022/10/12 07:56:45;;;;;;;15.00;9.00;;;8.40;99.90;;;;;;5067222;28;20218;-77
2022/10/12 07:59:12;;;;;;;16.03;9.50;;;8.40;99.90;;;;;;5050964;28;20214;-77
2022/10/12 08:01:39;;;;;;;15.80;9.10;;;8.50;99.90;;;;;;5051597;28;20537;-77
2022/10/12 08:04:06;;;;;;;16.57;8.70;;;8.60;99.90;;;;;;5051660;28;20213;-77
2022/10/12 08:06:33;;;;;;;15.80;9.00;;;8.60;99.90;;;;;;5051297;28;20621;-78
2022/10/12 08:09:02;;;;;;;17.63;9.90;;;8.70;99.90;;;;;;5052587;28;20234;-78
2022/10/12 08:11:29;;;;;;;18.07;8.57;;;8.80;99.90;;;;;;5052375;28;20203;-79
2022/10/12 08:13:57;;;;;;;19.63;9.37;;;8.90;99.90;;;;;;5051063;28;20202;-78
2022/10/12 08:16:25;;;;;;;17.23;9.43;;;8.90;99.90;;;;;;5052348;28;20193;-77
2022/10/12 08:18:52;;;;;;;15.30;9.30;;;9.00;99.90;;;;;;5053964;28;20236;-79
2022/10/12 08:21:18;;;;;;;15.43;8.87;;;9.10;99.90;;;;;;5055752;28;20269;-77
2022/10/12 08:23:46;;;;;;;25.93;10.83;;;9.10;99.90;;;;;;5053277;28;20202;-79
2022/10/12 08:26:14;;;;;;;22.60;10.33;;;9.20;99.90;;;;;;5060251;28;20208;-77
2022/10/12 08:28:41;;;;;;;19.33;9.60;;;9.30;99.90;;;;;;5091231;28;20196;-79
2022/10/12 08:31:12;;;;;;;18.93;9.70;;;9.40;99.90;;;;;;5075549;28;20223;-76
2022/10/12 08:33:39;;;;;;;22.10;10.77;;;9.40;99.90;;;;;;5064794;28;20608;-79
2022/10/12 08:36:07;;;;;;;19.80;9.77;;;9.50;99.90;;;;;;5070558;28;20648;-78
2022/10/12 08:38:37;;;;;;;22.77;12.50;;;9.60;99.90;;;;;;5060876;28;20250;-79
2022/10/12 08:41:12;;;;;;;19.30;11.17;;;9.70;99.90;;;;;;5056711;28;20292;-79
2022/10/12 08:43:51;;;;;;;18.03;10.43;;;9.80;99.90;;;;;;5071683;28;20200;-79
2022/10/12 08:46:22;;;;;;;21.07;12.20;;;9.90;99.90;;;;;;5059146;28;20239;-80
2022/10/12 08:48:55;;;;;;;17.60;11.07;;;10.00;99.90;;;;;;5070924;28;20200;-79
2022/10/12 08:51:25;;;;;;;21.90;11.83;;;10.10;99.90;;;;;;5071227;28;20216;-79
2022/10/12 08:53:57;;;;;;;13.87;9.87;;;10.10;99.90;;;;;;5056053;28;20198;-80
2022/10/12 08:56:24;;;;;;;19.13;11.97;;;10.20;99.90;;;;;;5059641;28;20224;-79
2022/10/12 08:58:52;;;;;;;16.73;10.57;;;10.30;99.90;;;;;;5071278;28;20219;-77
2022/10/12 09:01:28;;;;;;;19.67;9.70;;;10.40;99.90;;;;;;5070568;28;20207;-81
2022/10/12 09:04:10;;;;;;;21.07;10.73;;;10.50;99.90;;;;;;5051663;28;20201;-79
2022/10/12 09:06:42;;;;;;;20.13;9.90;;;10.50;99.90;;;;;;5059802;28;20415;-77
2022/10/12 09:09:20;;;;;;;18.27;10.37;;;10.60;99.90;;;;;;5053967;28;20222;-81
2022/10/12 09:12:01;;;;;;;17.23;9.00;;;10.70;99.90;;;;;;5054909;28;20175;-80
2022/10/12 09:14:32;;;;;;;16.93;10.13;;;10.80;99.90;;;;;;5055133;28;20287;-80
2022/10/12 09:17:02;;;;;;;21.63;9.20;;;10.90;99.90;;;;;;5054844;28;20186;-80
2022/10/12 09:19:35;;;;;;;21.10;9.17;;;11.00;99.90;;;;;;5054751;28;20214;-79
2022/10/12 09:22:05;;;;;;;13.63;8.13;;;11.10;99.90;;;;;;5054259;28;20183;-80
2022/10/12 09:24:38;;;;;;;13.87;7.57;;;11.20;99.90;;;;;;5054581;28;20210;-80
2022/10/12 09:27:13;;;;;;;13.90;7.60;;;11.30;99.90;;;;;;5054678;28;20279;-80
2022/10/12 09:29:41;;;;;;;12.30;6.80;;;11.40;99.90;;;;;;5060643;28;20189;-81
2022/10/12 09:32:31;;;;;;;10.40;6.10;;;11.50;99.90;;;;;;5083457;28;20193;-77
2022/10/12 09:34:59;;;;;;;19.90;7.43;;;11.70;99.90;;;;;;5088407;28;20195;-79
2022/10/12 09:37:30;;;;;;;13.20;6.20;;;11.90;99.90;;;;;;5093964;28;20231;-80
2022/10/12 09:39:58;;;;;;;12.63;5.40;;;12.00;99.90;;;;;;5079318;28;20494;-80
2022/10/12 09:42:25;;;;;;;14.40;5.97;;;12.10;99.90;;;;;;5074641;28;20291;-78
2022/10/12 09:44:58;;;;;;;13.67;5.50;;;12.30;99.90;;;;;;5074134;28;20217;-80
2022/10/12 09:47:30;;;;;;;13.83;5.70;;;12.40;99.90;;;;;;5057558;28;20208;-79
2022/10/12 09:49:58;;;;;;;13.23;4.80;;;12.60;99.90;;;;;;5054494;28;20251;-80
2022/10/12 09:52:29;;;;;;;10.73;4.87;;;12.70;99.90;;;;;;5089116;28;20230;-81
2022/10/12 09:54:59;;;;;;;10.30;4.17;;;12.90;99.90;;;;;;5054436;28;20205;-81
2022/10/12 09:57:29;;;;;;;10.23;4.17;;;13.10;99.90;;;;;;5054978;28;20231;-80
2022/10/12 09:59:56;;;;;;;10.33;4.73;;;13.20;99.90;;;;;;5070076;28;20217;-80
2022/10/12 10:02:24;;;;;;;9.40;4.13;;;13.30;99.90;;;;;;5077635;28;20196;-77
2022/10/12 10:04:54;;;;;;;17.27;4.90;;;13.50;99.90;;;;;;5075558;28;20194;-79
2022/10/12 10:07:27;;;;;;;8.13;3.47;;;13.70;99.90;;;;;;5074856;28;20205;-80
2022/10/12 10:10:13;;;;;;;12.97;4.90;;;13.80;99.90;;;;;;5073864;28;20237;-79
2022/10/12 10:12:47;;;;;;;11.83;4.83;;;14.00;99.90;;;;;;5077703;28;20217;-80
2022/10/12 10:15:20;;;;;;;16.63;5.40;;;14.10;99.90;;;;;;5080912;28;20182;-79
2022/10/12 10:17:52;;;;;;;8.57;3.67;;;14.30;99.90;;;;;;5074093;28;20189;-80
2022/10/12 10:20:30;;;;;;;6.50;3.13;;;14.50;99.90;;;;;;5060423;28;20292;-79
2022/10/12 10:22:58;;;;;;;9.07;3.67;;;14.60;99.90;;;;;;5073977;28;20198;-79
2022/10/12 10:25:26;;;;;;;12.90;4.10;;;14.80;99.90;;;;;;5071360;28;20231;-79
2022/10/12 10:28:12;;;;;;;9.95;3.22;;;14.80;99.90;;;;;;5078625;28;20585;-78
2022/10/12 10:30:39;;;;;;;5.53;2.25;;;15.00;99.90;;;;;;5080027;28;20195;-79
2022/10/12 10:33:16;;;;;;;9.10;2.67;;;15.20;99.90;;;;;;5084987;28;20236;-79
2022/10/12 10:36:01;;;;;;;8.85;3.13;;;15.30;99.90;;;;;;5073113;28;20268;-77
2022/10/12 10:38:32;;;;;;;8.10;3.00;;;15.50;92.40;;;;;;5068497;28;20212;-78
2022/10/12 10:41:01;;;;;;;8.95;2.72;;;15.60;23.30;;;;;;5067264;28;20612;-79
2022/10/12 10:43:30;;;;;;;9.55;3.10;;;15.70;40.70;;;;;;5093862;28;20291;-78
2022/10/12 10:46:00;;;;;;;11.50;2.80;;;15.80;14.70;;;;;;5059333;28;20221;-77
2022/10/12 10:48:29;;;;;;;9.23;4.07;;;15.90;34.80;;;;;;5056703;28;20202;-77
2022/10/12 10:51:00;;;;;;;9.40;3.63;;;15.90;13.20;;;;;;5093284;28;20192;-78
2022/10/12 10:53:30;;;;;;;9.75;3.85;;;16.00;1.00;;;;;;5055773;28;20198;-79
2022/10/12 10:56:05;;;;;;;7.10;3.17;;;15.90;1.00;;;;;;5052977;28;20220;-79
2022/10/12 10:58:35;;;;;;;8.82;3.50;;;16.00;1.00;;;;;;5051947;28;20212;-79
2022/10/12 11:01:12;;;;;;;11.20;3.83;;;16.00;1.00;;;;;;5052093;28;20635;-78
2022/10/12 11:03:48;;;;;;;13.65;4.88;;;16.10;1.00;;;;;;5053060;28;20303;-78
2022/10/12 11:06:23;;;;;;;11.77;4.93;;;16.20;1.00;;;;;;5053038;28;20206;-79
2022/10/12 11:08:56;;;;;;;11.60;4.82;;;16.20;1.00;;;;;;5052015;28;20765;-77
2022/10/12 11:11:26;;;;;;;16.92;4.93;;;16.20;1.00;;;;;;5052780;28;20182;-78
2022/10/12 11:13:57;;;;;;;13.27;5.35;;;16.30;1.00;;;;;;5068523;28;20197;-79
2022/10/12 11:16:34;;;;;;;9.00;4.93;;;16.50;1.00;;;;;;5071509;28;20202;-78
2022/10/12 11:19:06;;;;;;;10.35;4.85;;;16.50;1.00;;;;;;5072925;28;20292;-77
2022/10/12 11:21:43;;;;;;;16.40;5.45;;;16.60;1.00;;;;;;5051906;28;20200;-78
2022/10/12 11:24:14;;;;;;;13.02;5.03;;;16.50;99.90;;;;;;5063829;28;20212;-78
2022/10/12 11:26:47;;;;;;;13.48;5.30;;;16.40;1.00;;;;;;5077786;28;20498;-78
2022/10/12 11:29:16;;;;;;;13.07;4.47;;;16.30;1.00;;;;;;5052000;28;20195;-78
2022/10/12 11:31:52;;;;;;;10.13;4.55;;;16.30;1.00;;;;;;5052005;28;20229;-78
2022/10/12 11:34:22;;;;;;;10.70;4.68;;;16.40;1.00;;;;;;5071090;28;20196;-77
2022/10/12 11:36:53;;;;;;;12.25;5.38;;;16.50;99.90;;;;;;5075071;28;20189;-77
2022/10/12 11:39:28;;;;;;;11.70;5.38;;;16.50;99.90;;;;;;5064394;28;20296;-78
2022/10/12 11:41:57;;;;;;;8.95;4.90;;;16.50;99.90;;;;;;5052294;28;20204;-78
2022/10/12 11:44:29;;;;;;;15.23;5.70;;;16.50;1.00;;;;;;5051540;28;20620;-77
2022/10/12 11:47:01;;;;;;;10.48;4.25;;;16.20;1.00;;;;;;5052234;28;20221;-78
2022/10/12 11:49:32;;;;;;;11.52;4.40;;;16.20;99.90;;;;;;5051732;28;20281;-77
2022/10/12 11:52:05;;;;;;;13.02;5.65;;;16.20;99.90;;;;;;5051447;28;20456;-76
2022/10/12 11:54:39;;;;;;;14.02;6.30;;;16.10;1.00;;;;;;5051789;28;20200;-77
2022/10/12 11:57:13;;;;;;;14.00;5.90;;;16.00;99.90;;;;;;5051121;28;20231;-77
2022/10/12 11:59:44;;;;;;;14.20;5.93;;;15.90;99.90;;;;;;5052139;28;20194;-77
2022/10/12 12:02:17;;;;;;;13.23;6.28;;;15.90;18.60;;;;;;5069501;28;20197;-78
2022/10/12 12:04:46;;;;;;;12.57;6.25;;;15.80;1.00;;;;;;5071347;28;20286;-77
2022/10/12 12:07:40;;;;;;;14.18;6.10;;;15.80;1.00;;;;;;5071668;28;20625;-76
2022/10/12 12:10:40;;;;;;;13.00;5.30;;;15.70;99.90;;;;;;5060740;28;20264;-78
2022/10/12 12:13:18;;;;;;;10.68;5.10;;;15.80;37.80;;;;;;5051413;28;20201;-79
2022/10/12 12:16:33;;;;;;;11.02;5.00;;;15.90;1.00;;;;;;5051793;28;20587;-78
2022/10/12 12:19:40;;;;;;;9.65;4.90;;;16.00;1.00;;;;;;5051570;28;20206;-78
2022/10/12 12:22:27;;;;;;;10.43;4.88;;;16.00;1.00;;;;;;5052000;28;20663;-78
2022/10/12 12:25:29;;;;;;;10.73;4.80;;;15.90;1.00;;;;;;5051587;28;20194;-78
2022/10/12 12:27:59;;;;;;;10.95;4.60;;;15.90;1.00;;;;;;5046412;28;20209;-78
2022/10/12 12:30:36;;;;;;;10.85;5.03;;;15.90;1.00;;;;;;5051577;28;20206;-79
2022/10/12 12:33:07;;;;;;;12.68;5.45;;;15.90;99.90;;;;;;5051235;28;20232;-79
2022/10/12 12:35:38;;;;;;;13.30;5.80;;;15.80;81.50;;;;;;5051918;28;20197;-76
2022/10/12 12:38:17;;;;;;;11.73;4.93;;;15.80;1.00;;;;;;5052841;28;20198;-78
2022/10/12 12:41:01;;;;;;;10.18;5.00;;;15.70;83.40;;;;;;5055443;28;20185;-78
2022/10/12 12:43:54;;;;;;;14.75;6.43;;;15.70;99.90;;;;;;5055796;28;20210;-77
2022/10/12 12:46:23;;;;;;;9.90;4.72;;;15.50;1.00;;;;;;5052050;28;20285;-77
2022/10/12 12:48:57;;;;;;;9.73;5.45;;;15.50;1.00;;;;;;5055418;28;20208;-77
2022/10/12 12:51:34;;;;;;;13.55;6.18;;;15.50;1.00;;;;;;5054989;28;20287;-77
2022/10/12 12:54:03;;;;;;;11.38;5.97;;;15.60;99.90;;;;;;5055090;28;20573;-78
2022/10/12 12:56:38;;;;;;;13.27;6.18;;;15.60;1.00;;;;;;5055184;28;20226;-77
2022/10/12 12:59:27;;;;;;;8.30;4.63;;;15.50;1.00;;;;;;5055689;28;20186;-78
2022/10/12 13:02:12;;;;;;;11.57;5.88;;;15.50;1.00;;;;;;5055150;28;20206;-78
2022/10/12 13:04:55;;;;;;;15.48;5.82;;;15.60;1.00;;;;;;5055334;28;20514;-77
2022/10/12 13:07:47;;;;;;;9.15;4.70;;;15.60;1.00;;;;;;5054475;28;20221;-77